Airfield :
LOGIN :

Register | Disclaimer

   EN    FR    IT 

 










Legend :    VFR   Marginal VFR   IFR   Intensive IFR   Very Intensive IFR
Visi :
Ceiling :
>= 8 km
>= 3000ft
5 to 8 km
1000 to 3000 ft
1500m to 5 km
500 to 1000 ft
800 to 1500m
200 to 500 ft
< 800m
< 200 ft
Symbols :   Thunderstorms  Fog  Heavy snow  Heavy precipitations  Wind > 20 kt
SIGMETs :     Misc.  Thunderstorms  Icing  Turbulence  Mountain Waves  Volcanic Ashes






- Airport Elevation : 238 ft
- IATA code : FAB


EGLF - Farnborough

CURRENT METAR :
  • 300850Z AUTO 21009KT 9999 NCD 13/10 Q1008

EXPIRED METARs :
  • 300820Z 21006KT 160V250 CAVOK 12/10 Q1009
  • 300750Z VRB01KT 6000 NSC 08/08 Q1009
  • 300720Z 14001KT 4200 BR FEW001 07/07 Q1009
  • 300650Z VRB01KT 0250 FG VV/// 06/06 Q1009
  • 300620Z 22001KT 0300 FG OVC000 05/05 Q1009

TAF TAF EGLF
Valid from the 30 at 09:00 until the 30 at 18:00 UTC


300800Z 3009/3018 21010KT 6000 SCT045
BECMG 3009/3011 9999
PROB30
TEMPO 3012/3014 21015G26KT
TEMPO 3014/3018 21015G29KT 8000 RA BKN011
PROB30
TEMPO 3014/3018 3000 +RA
ATIS : +44 09063 800 400 (*282)



MET'MAP, your aeronautical weather chart ! - Copyright ORBIFLY December 2007 - Disclaimer

ORBIFLY MET'MAP TEAM :

Programming & Development : Alexandra Zaïnal
Original concept : Baudouin d'Aumeries
Technical & hardware support : Manuel Goepfert
Assistance : Marc-Olivier Méhu




SOURCES & CREDITS :

   NOAA